Eddy, Minnesota
Current Conditions -  °F | °C
As of 2:55 AM on Monday 24 Nov 2014 (Local Time) from KFSE Reporting Station
Light Snow Light Snow  
Wind Chill: -5°   Ceiling: 2000
Heat Index: 12°   Visibility: 2mi
Dew Point: 10°   Wind: 17mph
Humidity: 92%   Direction: 330°NNW
Pressure: 29.51"   Gusts: 23mph
Location:  47.7926°N, 95.3062°W
Report Text: KFSE 240855Z AUTO 33015G20KT 2SM -SN SCT015 BKN020 OVC027 M11/M12 A2951 RMK AO2
Loading
Personal Weather Stations






























Interactive Weather Map New forecast layout! Learn more

10-Day Weather Forecast

Advertisements
Track Severe Weather on mobile